Time;durP1;ratioP1;P1;durP2;ratioP2;P2;SDS_P1;SDS_P2;PMS_P1;PMS_P2;Temp;Humidity;BMP_temperature;BMP_pressure;BME280_temperature;BME280_humidity;BME280_pressure;Samples;Min_cycle;Max_cycle;Signal;HPM_P1;HPM_P2
2021/10/24 00:00:52;;;;;;;7.70;6.47;;;9.50;99.90;;;;;;5200000;22;20503;-59
2021/10/24 00:03:18;;;;;;;7.67;6.73;;;9.60;99.90;;;;;;5291694;22;20469;-63
2021/10/24 00:05:44;;;;;;;10.27;6.67;;;9.50;99.90;;;;;;5007889;23;20426;-63
2021/10/24 00:08:10;;;;;;;6.83;6.13;;;9.60;99.90;;;;;;5008637;28;20627;-59
2021/10/24 00:10:36;;;;;;;13.00;6.80;;;9.80;99.90;;;;;;5008258;28;20439;-59
2021/10/24 00:13:02;;;;;;;11.87;6.80;;;9.50;99.90;;;;;;5007605;28;20284;-59
2021/10/24 00:15:39;;;;;;;8.80;6.43;;;9.20;99.90;;;;;;5006639;28;20248;-59
2021/10/24 00:18:14;;;;;;;10.10;6.70;;;9.30;99.90;;;;;;4974962;28;20539;-63
2021/10/24 00:20:40;;;;;;;8.47;7.30;;;9.20;99.90;;;;;;4974928;28;20440;-63
2021/10/24 00:23:18;;;;;;;11.57;7.87;;;9.20;99.90;;;;;;4987056;28;20440;-63
2021/10/24 00:25:43;;;;;;;7.70;6.50;;;9.30;99.90;;;;;;4984319;28;21013;-61
2021/10/24 00:28:09;;;;;;;13.40;7.13;;;9.30;99.90;;;;;;4987910;28;20456;-59
2021/10/24 00:30:35;;;;;;;10.40;6.97;;;9.30;99.90;;;;;;4989301;28;20244;-59
2021/10/24 00:33:13;;;;;;;9.60;6.63;;;9.30;99.90;;;;;;4987108;28;20285;-63
2021/10/24 00:35:39;;;;;;;8.50;6.37;;;9.40;99.90;;;;;;4972386;28;20464;-63
2021/10/24 00:38:08;;;;;;;10.63;7.53;;;9.40;99.90;;;;;;4984826;28;20518;-63
2021/10/24 00:40:34;;;;;;;9.03;6.70;;;9.40;99.90;;;;;;4988216;28;20433;-59
2021/10/24 00:43:01;;;;;;;8.83;6.90;;;9.40;99.90;;;;;;4986413;28;20440;-64
2021/10/24 00:45:28;;;;;;;8.80;6.53;;;9.60;99.90;;;;;;4993602;23;20695;-63
2021/10/24 00:47:54;;;;;;;9.50;7.23;;;9.70;99.90;;;;;;4986744;28;20480;-61
2021/10/24 00:50:25;;;;;;;9.30;6.77;;;9.50;99.90;;;;;;5003591;28;21521;-61
2021/10/24 00:52:51;;;;;;;7.30;6.60;;;9.40;99.90;;;;;;5000079;28;20442;-60
2021/10/24 00:55:19;;;;;;;7.40;6.60;;;9.50;99.90;;;;;;5000747;28;20885;-63
2021/10/24 00:57:44;;;;;;;9.20;6.90;;;9.40;99.90;;;;;;4987831;28;20429;-62
2021/10/24 01:00:12;;;;;;;10.70;5.93;;;9.50;99.90;;;;;;4984924;28;20449;-64
2021/10/24 01:02:38;;;;;;;10.77;7.57;;;9.50;99.90;;;;;;4987777;28;20182;-64
2021/10/24 01:05:06;;;;;;;7.20;6.50;;;9.60;99.90;;;;;;4986045;28;20429;-63
2021/10/24 01:07:33;;;;;;;8.07;6.87;;;9.70;99.90;;;;;;4983656;28;20468;-61
2021/10/24 01:10:14;;;;;;;9.77;6.53;;;9.70;99.90;;;;;;4988676;28;20444;-62
2021/10/24 01:15:19;;;;;;;7.77;6.40;;;9.60;99.90;;;;;;5099409;23;20483;-60
2021/10/24 01:17:54;;;;;;;9.33;6.47;;;9.60;99.90;;;;;;5005416;28;20444;-62
2021/10/24 01:20:35;;;;;;;9.17;7.60;;;9.70;99.90;;;;;;5006385;28;20440;-62
2021/10/24 01:23:01;;;;;;;13.47;7.60;;;9.60;99.90;;;;;;5004361;28;20451;-61
2021/10/24 01:25:55;;;;;;;9.20;6.50;;;9.60;99.90;;;;;;5005946;28;20436;-61
2021/10/24 01:28:21;;;;;;;12.07;8.47;;;9.50;99.90;;;;;;5006223;28;20193;-60
2021/10/24 01:30:47;;;;;;;9.70;6.97;;;9.50;99.90;;;;;;5003713;28;20786;-61
2021/10/24 01:34:04;;;;;;;7.77;6.57;;;9.50;99.90;;;;;;5009334;28;20181;-64
2021/10/24 01:36:30;;;;;;;9.63;6.57;;;9.40;99.90;;;;;;5004769;28;20563;-61
2021/10/24 01:38:59;;;;;;;8.10;6.97;;;9.30;99.90;;;;;;5002506;28;20440;-60
2021/10/24 01:41:28;;;;;;;7.63;5.90;;;9.30;99.90;;;;;;5007149;28;20523;-62
2021/10/24 01:43:54;;;;;;;8.70;6.30;;;9.40;99.90;;;;;;5004414;28;20503;-62
2021/10/24 01:46:21;;;;;;;7.33;6.53;;;9.30;99.90;;;;;;5005128;28;20475;-61
2021/10/24 01:48:48;;;;;;;7.43;5.70;;;9.40;99.90;;;;;;5004215;28;20522;-61
2021/10/24 01:51:14;;;;;;;7.60;6.07;;;9.30;99.90;;;;;;5003864;28;20452;-61
2021/10/24 01:53:45;;;;;;;9.30;6.30;;;9.20;99.90;;;;;;5003220;28;21409;-61
2021/10/24 01:56:11;;;;;;;11.73;7.33;;;9.20;99.90;;;;;;5005538;28;20476;-64
2021/10/24 01:58:37;;;;;;;8.00;6.50;;;9.20;99.90;;;;;;5001464;28;20448;-64
2021/10/24 02:01:04;;;;;;;9.60;6.60;;;9.20;99.90;;;;;;5002810;28;20208;-64
2021/10/24 02:05:57;;;;;;;11.03;7.03;;;9.20;99.90;;;;;;5009472;22;20498;-76
2021/10/24 02:08:23;;;;;;;8.63;6.80;;;9.20;99.90;;;;;;4995955;28;20440;-75
2021/10/24 02:10:49;;;;;;;9.20;6.20;;;9.10;99.90;;;;;;4997384;28;20864;-75
2021/10/24 02:13:15;;;;;;;7.07;6.37;;;9.10;99.90;;;;;;4997511;28;20201;-74
2021/10/24 02:15:41;;;;;;;8.87;5.93;;;9.10;99.90;;;;;;4989114;28;21278;-75
2021/10/24 02:18:10;;;;;;;8.53;6.83;;;9.10;99.90;;;;;;4992676;28;20194;-76
2021/10/24 02:20:36;;;;;;;11.00;6.40;;;9.20;99.90;;;;;;4993449;28;20232;-75
2021/10/24 02:23:04;;;;;;;6.33;5.73;;;9.20;99.90;;;;;;4996741;28;20511;-75
2021/10/24 02:25:30;;;;;;;9.87;6.90;;;9.20;99.90;;;;;;4995288;28;20436;-75
2021/10/24 02:27:56;;;;;;;6.83;5.97;;;9.00;99.90;;;;;;4996856;28;20786;-76
2021/10/24 02:30:23;;;;;;;7.13;6.30;;;9.10;99.90;;;;;;4993570;28;20470;-76
2021/10/24 02:32:49;;;;;;;7.00;6.30;;;9.10;99.90;;;;;;4991864;28;21603;-76
2021/10/24 02:35:15;;;;;;;14.07;6.10;;;9.00;99.90;;;;;;4977121;28;20433;-75
2021/10/24 02:37:44;;;;;;;9.23;5.73;;;8.70;99.90;;;;;;4994864;28;20470;-74
2021/10/24 02:40:11;;;;;;;7.70;6.40;;;8.70;99.90;;;;;;4994605;28;21289;-76
2021/10/24 02:42:37;;;;;;;6.90;6.17;;;8.70;99.90;;;;;;4995516;28;20463;-77
2021/10/24 02:45:05;;;;;;;10.77;6.40;;;8.40;99.90;;;;;;4995124;28;20827;-76
2021/10/24 02:47:31;;;;;;;6.93;5.90;;;8.40;99.90;;;;;;4995781;28;20949;-76
2021/10/24 02:49:56;;;;;;;8.33;5.60;;;8.60;99.90;;;;;;4995276;28;20486;-76
2021/10/24 02:52:22;;;;;;;7.20;6.30;;;8.50;99.90;;;;;;4994955;28;20246;-76
2021/10/24 02:54:47;;;;;;;5.53;5.03;;;8.50;99.90;;;;;;4994513;28;20200;-76
2021/10/24 02:57:13;;;;;;;12.53;6.17;;;8.40;99.90;;;;;;4991745;28;20244;-76
2021/10/24 02:59:39;;;;;;;14.10;5.87;;;8.40;99.90;;;;;;4995927;28;20252;-75
2021/10/24 03:02:05;;;;;;;7.27;6.10;;;8.50;99.90;;;;;;4998772;28;20196;-75
2021/10/24 03:04:31;;;;;;;8.90;7.17;;;8.50;99.90;;;;;;4993510;28;20246;-75
2021/10/24 03:06:57;;;;;;;13.47;6.23;;;8.50;99.90;;;;;;4996888;28;20484;-75
2021/10/24 03:09:23;;;;;;;8.77;6.07;;;8.30;99.90;;;;;;4995610;28;20193;-74
2021/10/24 03:11:49;;;;;;;10.33;7.80;;;8.30;99.90;;;;;;4995000;28;20471;-74
2021/10/24 03:14:16;;;;;;;7.33;5.87;;;8.40;99.90;;;;;;4993793;28;20197;-75
2021/10/24 03:16:43;;;;;;;7.80;6.20;;;8.50;99.90;;;;;;4992904;28;20551;-75
2021/10/24 03:19:09;;;;;;;7.23;6.53;;;8.40;99.90;;;;;;4997554;28;20490;-75
2021/10/24 03:21:35;;;;;;;7.63;5.60;;;8.30;99.90;;;;;;4995107;28;20517;-76
2021/10/24 03:24:04;;;;;;;10.90;6.33;;;8.40;99.90;;;;;;4989601;28;20812;-75
2021/10/24 03:26:30;;;;;;;10.30;6.37;;;8.40;99.90;;;;;;4996398;28;20201;-76
2021/10/24 03:28:56;;;;;;;9.60;6.17;;;8.60;99.90;;;;;;4996691;28;20892;-76
2021/10/24 03:31:22;;;;;;;9.93;6.23;;;8.50;99.90;;;;;;4990783;28;20562;-76
2021/10/24 03:33:47;;;;;;;8.63;6.60;;;8.60;99.90;;;;;;4997777;28;20189;-77
2021/10/24 03:36:13;;;;;;;7.60;5.57;;;8.50;99.90;;;;;;4994474;28;20471;-74
2021/10/24 03:38:40;;;;;;;6.73;5.90;;;8.60;99.90;;;;;;4993303;28;21127;-76
2021/10/24 03:41:05;;;;;;;11.90;6.00;;;8.70;99.90;;;;;;4996779;28;20209;-76
2021/10/24 03:43:31;;;;;;;6.57;5.87;;;8.70;99.90;;;;;;4995193;28;20497;-75
2021/10/24 03:45:58;;;;;;;6.00;5.40;;;8.60;99.90;;;;;;4998230;28;20460;-74
2021/10/24 03:48:24;;;;;;;5.77;5.17;;;8.70;99.90;;;;;;4998041;28;20534;-75
2021/10/24 03:50:50;;;;;;;12.70;5.83;;;8.60;99.90;;;;;;4999244;28;20518;-75
2021/10/24 03:53:16;;;;;;;7.87;5.67;;;8.60;99.90;;;;;;5000285;28;20937;-74
2021/10/24 03:55:41;;;;;;;8.73;5.17;;;8.60;99.90;;;;;;4996621;28;20480;-75
2021/10/24 03:58:07;;;;;;;10.53;6.23;;;8.50;99.90;;;;;;4984141;28;20456;-75
2021/10/24 04:00:33;;;;;;;6.53;5.83;;;8.50;99.90;;;;;;5002076;28;20264;-75
2021/10/24 04:03:01;;;;;;;8.33;5.30;;;8.40;99.90;;;;;;4996254;28;20193;-74
2021/10/24 04:05:28;;;;;;;12.13;5.97;;;8.50;99.90;;;;;;4998881;28;20552;-75
2021/10/24 04:07:55;;;;;;;7.57;4.80;;;8.30;99.90;;;;;;5000307;28;20439;-76
2021/10/24 04:10:23;;;;;;;9.80;6.30;;;8.30;99.90;;;;;;4997283;28;20626;-76
2021/10/24 04:12:49;;;;;;;6.50;5.43;;;8.30;99.90;;;;;;4999498;28;20447;-76
2021/10/24 04:15:17;;;;;;;9.37;5.67;;;8.30;99.90;;;;;;4983464;28;21082;-76
2021/10/24 04:17:43;;;;;;;7.43;5.53;;;8.40;99.90;;;;;;4995204;28;20982;-75
2021/10/24 04:20:12;;;;;;;7.40;5.40;;;8.50;99.90;;;;;;4999685;28;20528;-75
2021/10/24 04:22:39;;;;;;;6.43;5.77;;;8.50;99.90;;;;;;5000231;28;20501;-76
2021/10/24 04:25:06;;;;;;;8.27;5.73;;;8.50;99.90;;;;;;4999911;28;20782;-76
2021/10/24 04:27:32;;;;;;;11.33;5.50;;;8.30;99.90;;;;;;4997170;28;20836;-76
2021/10/24 04:29:59;;;;;;;5.90;5.30;;;8.30;99.90;;;;;;4998079;28;20469;-76
2021/10/24 04:32:24;;;;;;;6.07;5.50;;;8.20;99.90;;;;;;4998592;28;20698;-75
2021/10/24 04:34:51;;;;;;;6.67;5.90;;;8.20;99.90;;;;;;4997991;28;20558;-75
2021/10/24 04:37:18;;;;;;;10.60;6.23;;;8.30;99.90;;;;;;4996711;28;20340;-74
2021/10/24 04:39:43;;;;;;;6.83;4.97;;;8.20;99.90;;;;;;4999815;28;20458;-75
2021/10/24 04:42:09;;;;;;;7.10;5.43;;;7.90;99.90;;;;;;5000523;28;20467;-75
2021/10/24 04:44:35;;;;;;;6.87;5.30;;;8.00;99.90;;;;;;4998263;28;20192;-75
2021/10/24 04:47:01;;;;;;;8.00;6.00;;;7.90;99.90;;;;;;4996941;28;21328;-76
2021/10/24 04:49:27;;;;;;;5.63;5.13;;;7.80;99.90;;;;;;5000427;28;20192;-75
2021/10/24 04:51:52;;;;;;;9.77;5.97;;;8.00;99.90;;;;;;4995799;28;20388;-74
2021/10/24 04:54:20;;;;;;;7.53;5.40;;;8.00;99.90;;;;;;4994634;28;20199;-75
2021/10/24 04:56:45;;;;;;;13.17;5.00;;;7.90;99.90;;;;;;4998952;28;20413;-74
2021/10/24 04:59:11;;;;;;;12.53;5.50;;;7.70;99.90;;;;;;4997714;28;20498;-75
2021/10/24 05:01:36;;;;;;;12.53;6.40;;;7.60;99.90;;;;;;4998659;28;20203;-75
2021/10/24 05:04:02;;;;;;;7.10;6.33;;;7.60;99.90;;;;;;4994311;28;22655;-76
2021/10/24 05:06:28;;;;;;;12.93;6.33;;;7.70;99.90;;;;;;4995681;28;20263;-76
2021/10/24 05:08:54;;;;;;;8.50;5.70;;;7.50;99.90;;;;;;4998722;28;21116;-75
2021/10/24 05:11:19;;;;;;;8.67;6.20;;;7.30;99.90;;;;;;4996982;28;20224;-77
2021/10/24 05:13:45;;;;;;;7.00;5.37;;;7.40;99.90;;;;;;5000079;28;20189;-75
2021/10/24 05:16:11;;;;;;;8.93;5.77;;;7.30;99.90;;;;;;4997573;28;20653;-75
2021/10/24 05:18:37;;;;;;;8.93;6.27;;;7.40;99.90;;;;;;4995057;28;20197;-74
2021/10/24 05:21:02;;;;;;;8.70;5.80;;;7.10;99.90;;;;;;4997360;28;20252;-75
2021/10/24 05:23:28;;;;;;;7.93;5.63;;;7.30;99.90;;;;;;4995317;28;20556;-74
2021/10/24 05:25:54;;;;;;;12.93;5.77;;;7.50;99.90;;;;;;4996570;28;20790;-76
2021/10/24 05:28:20;;;;;;;10.07;5.83;;;7.60;99.90;;;;;;5000685;28;20610;-75
2021/10/24 05:30:45;;;;;;;7.07;5.77;;;7.60;99.90;;;;;;4996076;28;20476;-75
2021/10/24 05:33:11;;;;;;;7.23;5.70;;;7.60;99.90;;;;;;4980853;28;20257;-76
2021/10/24 05:35:36;;;;;;;9.13;5.90;;;7.70;99.90;;;;;;4995418;28;20192;-76
2021/10/24 05:38:02;;;;;;;11.23;5.50;;;7.70;99.90;;;;;;4997694;28;20211;-76
2021/10/24 05:40:28;;;;;;;8.30;4.97;;;7.80;99.90;;;;;;4998128;28;20282;-74
2021/10/24 05:42:53;;;;;;;7.70;6.00;;;7.80;99.90;;;;;;4982477;28;20243;-75
2021/10/24 05:45:19;;;;;;;11.83;6.20;;;7.80;99.90;;;;;;4997179;28;20227;-75
2021/10/24 05:47:45;;;;;;;6.33;5.33;;;7.80;99.90;;;;;;4996026;28;20242;-76
2021/10/24 05:50:11;;;;;;;6.17;4.90;;;7.70;99.90;;;;;;4998349;28;21019;-76
2021/10/24 05:52:37;;;;;;;9.63;5.40;;;7.70;99.90;;;;;;4998591;28;20185;-76
2021/10/24 05:55:04;;;;;;;9.40;6.03;;;7.80;99.90;;;;;;4998024;28;20201;-76
2021/10/24 05:57:30;;;;;;;9.37;5.80;;;7.90;99.90;;;;;;4998734;28;20233;-74
2021/10/24 05:59:56;;;;;;;5.97;5.33;;;7.70;99.90;;;;;;4995801;28;20496;-75
2021/10/24 06:02:21;;;;;;;7.27;5.37;;;7.70;99.90;;;;;;4999545;28;20196;-75
2021/10/24 06:04:47;;;;;;;11.60;5.93;;;7.60;99.90;;;;;;4994224;28;20779;-75
2021/10/24 06:07:13;;;;;;;5.40;4.67;;;7.50;99.90;;;;;;4995531;28;20193;-76
2021/10/24 06:09:49;;;;;;;10.03;6.13;;;7.20;99.90;;;;;;4998814;28;20274;-76
2021/10/24 06:15:00;;;;;;;7.80;5.77;;;7.20;99.90;;;;;;5000434;28;20996;-76
2021/10/24 06:17:26;;;;;;;7.23;5.00;;;7.10;99.90;;;;;;4996613;28;20487;-76
2021/10/24 06:19:52;;;;;;;7.17;5.37;;;7.10;99.90;;;;;;4996768;28;20827;-76
2021/10/24 06:22:17;;;;;;;5.80;4.80;;;7.30;99.90;;;;;;4987038;28;20444;-76
2021/10/24 06:24:43;;;;;;;7.50;5.37;;;7.30;99.90;;;;;;4997348;28;20185;-75
2021/10/24 06:27:09;;;;;;;6.07;4.60;;;7.50;99.90;;;;;;5003364;28;20604;-74
2021/10/24 06:29:34;;;;;;;6.37;5.23;;;7.50;99.90;;;;;;5001007;28;20288;-74
2021/10/24 06:32:00;;;;;;;10.50;5.57;;;7.50;99.90;;;;;;5004417;28;20211;-74
2021/10/24 06:34:26;;;;;;;7.77;6.10;;;7.50;99.90;;;;;;5017564;28;20197;-74
2021/10/24 06:36:52;;;;;;;8.03;5.57;;;7.40;99.90;;;;;;5022333;28;20258;-75
2021/10/24 06:39:17;;;;;;;5.93;5.07;;;7.50;99.90;;;;;;5029123;28;20168;-74
2021/10/24 06:41:43;;;;;;;7.17;4.60;;;7.50;99.90;;;;;;5024570;28;20451;-76
2021/10/24 06:44:09;;;;;;;11.83;5.27;;;7.60;99.90;;;;;;5010026;28;20224;-76
2021/10/24 06:46:34;;;;;;;6.73;5.30;;;7.50;99.90;;;;;;5013882;28;20248;-76
2021/10/24 06:49:00;;;;;;;6.47;5.53;;;7.40;99.90;;;;;;5010447;28;20236;-75
2021/10/24 06:51:26;;;;;;;8.03;6.57;;;7.20;99.90;;;;;;5007926;28;20217;-74
2021/10/24 06:53:51;;;;;;;7.87;5.20;;;7.40;99.90;;;;;;5003948;28;20194;-76
2021/10/24 06:56:17;;;;;;;7.83;5.30;;;7.60;99.90;;;;;;5001382;28;20205;-76
2021/10/24 06:58:42;;;;;;;6.60;5.93;;;7.60;99.90;;;;;;4998554;28;20203;-75
2021/10/24 07:01:08;;;;;;;8.27;5.40;;;7.50;99.90;;;;;;4996097;28;20304;-76
2021/10/24 07:03:34;;;;;;;7.57;5.33;;;7.50;99.90;;;;;;4997567;28;20275;-75
2021/10/24 07:06:02;;;;;;;8.47;6.00;;;7.60;99.90;;;;;;4979593;28;21097;-75
2021/10/24 07:08:28;;;;;;;7.93;5.63;;;7.40;99.90;;;;;;4995359;28;20275;-76
2021/10/24 07:10:54;;;;;;;9.20;6.20;;;7.50;99.90;;;;;;4995160;28;20480;-74
2021/10/24 07:13:19;;;;;;;7.90;5.77;;;7.50;99.90;;;;;;4993021;28;20196;-76
2021/10/24 07:15:45;;;;;;;7.07;6.00;;;7.70;99.90;;;;;;4993188;28;20252;-76
2021/10/24 07:18:11;;;;;;;9.30;5.60;;;7.70;99.90;;;;;;4993895;28;20239;-76
2021/10/24 07:20:36;;;;;;;12.30;5.70;;;7.90;99.90;;;;;;4991209;28;20205;-76
2021/10/24 07:23:05;;;;;;;8.60;6.40;;;7.90;99.90;;;;;;5001312;28;20203;-75
2021/10/24 07:25:31;;;;;;;7.90;5.93;;;8.00;99.90;;;;;;4980075;28;20207;-75
2021/10/24 07:27:56;;;;;;;6.20;5.60;;;8.00;99.90;;;;;;4995939;28;20443;-75
2021/10/24 07:30:22;;;;;;;8.13;5.33;;;8.10;99.90;;;;;;4999314;28;20300;-74
2021/10/24 07:32:48;;;;;;;8.00;5.17;;;8.10;99.90;;;;;;4998983;28;20267;-74
2021/10/24 07:35:14;;;;;;;6.07;5.20;;;8.20;99.90;;;;;;4993442;28;20223;-73
2021/10/24 07:37:41;;;;;;;7.03;5.63;;;8.20;99.90;;;;;;5000439;28;20484;-74
2021/10/24 07:40:08;;;;;;;6.37;4.73;;;8.30;99.90;;;;;;5000790;28;20285;-73
2021/10/24 07:42:35;;;;;;;8.33;5.70;;;8.30;99.90;;;;;;5000256;28;20459;-76
2021/10/24 07:45:01;;;;;;;9.60;5.60;;;8.30;99.90;;;;;;5001017;28;20462;-74
2021/10/24 07:47:30;;;;;;;9.80;6.30;;;8.30;99.90;;;;;;4996667;28;20428;-74
2021/10/24 07:49:57;;;;;;;9.83;6.00;;;8.30;99.90;;;;;;4980863;28;20894;-74
2021/10/24 07:52:23;;;;;;;14.13;6.67;;;8.40;99.90;;;;;;5003785;28;20474;-74
2021/10/24 07:54:49;;;;;;;11.30;6.00;;;8.50;99.90;;;;;;4997233;28;20447;-75
2021/10/24 07:57:15;;;;;;;11.93;5.60;;;8.50;99.90;;;;;;4993793;28;20213;-75
2021/10/24 07:59:40;;;;;;;9.70;6.50;;;8.80;99.90;;;;;;4997504;28;20764;-75
2021/10/24 08:02:11;;;;;;;21.80;12.37;;;8.90;99.90;;;;;;4999567;28;20752;-76
2021/10/24 08:04:37;;;;;;;7.97;6.13;;;9.00;99.90;;;;;;4997803;28;20194;-74
2021/10/24 08:07:04;;;;;;;8.97;5.63;;;9.10;99.90;;;;;;4996320;28;20479;-75
2021/10/24 08:09:31;;;;;;;6.67;6.00;;;9.20;99.90;;;;;;4997112;28;20768;-75
2021/10/24 08:11:58;;;;;;;6.87;6.20;;;9.30;99.90;;;;;;4984606;28;20437;-75
2021/10/24 08:14:23;;;;;;;9.63;5.70;;;9.40;99.90;;;;;;4997368;28;20494;-76
2021/10/24 08:16:50;;;;;;;7.57;5.43;;;9.40;99.90;;;;;;4996098;28;20472;-75
2021/10/24 08:19:16;;;;;;;7.27;5.17;;;9.40;99.90;;;;;;4998548;28;20196;-74
2021/10/24 08:21:43;;;;;;;9.70;5.80;;;9.30;99.90;;;;;;4998055;28;20458;-74
2021/10/24 08:24:08;;;;;;;9.13;6.27;;;9.40;99.90;;;;;;5000652;28;20855;-75
2021/10/24 08:26:35;;;;;;;7.40;5.63;;;9.40;99.90;;;;;;4996046;28;20457;-74
2021/10/24 08:29:01;;;;;;;9.07;5.90;;;9.50;99.90;;;;;;4981395;28;20205;-74
2021/10/24 08:31:29;;;;;;;9.00;5.83;;;9.50;99.90;;;;;;4997271;28;20504;-79
2021/10/24 08:33:59;;;;;;;7.60;5.67;;;9.50;99.90;;;;;;4996500;28;21721;-79
2021/10/24 08:36:26;;;;;;;9.27;5.53;;;9.60;99.90;;;;;;4998080;28;20470;-74
2021/10/24 08:38:54;;;;;;;9.63;5.90;;;9.50;99.90;;;;;;4987804;28;20437;-74
2021/10/24 08:41:23;;;;;;;8.77;5.43;;;9.60;99.90;;;;;;4991244;28;20472;-75
2021/10/24 08:43:53;;;;;;;7.23;5.60;;;9.60;99.90;;;;;;4998404;28;20427;-74
2021/10/24 08:46:22;;;;;;;6.80;5.97;;;9.70;99.90;;;;;;4994988;28;20457;-73
2021/10/24 08:48:49;;;;;;;7.30;5.00;;;9.60;99.90;;;;;;4995511;28;20791;-74
2021/10/24 08:51:16;;;;;;;8.30;6.13;;;9.80;99.90;;;;;;4996480;28;20458;-74
2021/10/24 08:53:49;;;;;;;8.00;5.67;;;9.70;99.90;;;;;;4992558;28;20502;-83
2021/10/24 08:56:16;;;;;;;12.20;6.40;;;9.50;99.90;;;;;;4995121;28;20551;-75
2021/10/24 08:58:43;;;;;;;7.50;6.00;;;9.50;99.90;;;;;;4983137;28;20439;-76
2021/10/24 09:01:09;;;;;;;8.67;6.17;;;9.40;99.90;;;;;;4996025;28;20534;-76
2021/10/24 09:03:37;;;;;;;8.80;6.00;;;9.70;99.90;;;;;;4997585;28;20432;-76
2021/10/24 09:06:02;;;;;;;9.83;6.17;;;9.80;99.90;;;;;;4997769;28;20452;-76
2021/10/24 09:08:28;;;;;;;9.63;6.53;;;9.90;99.90;;;;;;4996273;28;20966;-75
2021/10/24 09:10:55;;;;;;;8.67;6.43;;;9.80;99.90;;;;;;5003374;28;20217;-76
2021/10/24 09:13:23;;;;;;;9.13;6.37;;;9.90;99.90;;;;;;4997588;28;20670;-76
2021/10/24 09:15:52;;;;;;;11.33;7.97;;;10.00;99.90;;;;;;5000081;28;20572;-76
2021/10/24 09:18:30;;;;;;;8.13;6.27;;;10.10;99.90;;;;;;4998164;28;20432;-76
2021/10/24 09:20:56;;;;;;;7.70;6.03;;;10.10;99.90;;;;;;4999346;28;20452;-79
2021/10/24 09:23:22;;;;;;;9.80;6.17;;;10.10;99.90;;;;;;4996246;28;20437;-78
2021/10/24 09:25:53;;;;;;;11.30;6.20;;;10.10;99.90;;;;;;4997907;28;20434;-77
2021/10/24 09:28:21;;;;;;;11.77;5.87;;;10.20;99.90;;;;;;4999934;28;20446;-77
2021/10/24 09:30:58;;;;;;;7.90;6.10;;;10.10;99.90;;;;;;4996588;28;20575;-76
2021/10/24 09:33:24;;;;;;;9.33;6.40;;;10.20;99.90;;;;;;4993221;28;20507;-79
2021/10/24 09:35:51;;;;;;;7.07;6.17;;;10.20;99.90;;;;;;5002183;28;20441;-76
2021/10/24 09:38:30;;;;;;;10.67;6.80;;;10.20;99.90;;;;;;5000412;28;20424;-83
2021/10/24 09:40:58;;;;;;;8.20;6.10;;;10.10;99.90;;;;;;4998438;28;20470;-76
2021/10/24 09:43:26;;;;;;;7.63;6.07;;;10.00;99.90;;;;;;4999935;28;20432;-77
2021/10/24 09:45:57;;;;;;;7.60;5.90;;;10.00;99.90;;;;;;4997404;28;20942;-77
2021/10/24 09:48:29;;;;;;;8.30;6.20;;;10.00;99.90;;;;;;4994293;28;21029;-77
2021/10/24 09:50:59;;;;;;;8.40;6.33;;;10.20;99.90;;;;;;5000260;28;20595;-76
2021/10/24 09:53:32;;;;;;;7.63;6.23;;;10.20;99.90;;;;;;4994427;28;20436;-76
2021/10/24 09:56:01;;;;;;;9.60;6.30;;;10.30;99.90;;;;;;4984328;28;20472;-77
2021/10/24 09:58:31;;;;;;;11.50;6.77;;;10.20;99.90;;;;;;4986603;28;20448;-76
2021/10/24 10:00:58;;;;;;;11.97;7.13;;;10.20;99.90;;;;;;4994725;28;20459;-76
2021/10/24 10:03:25;;;;;;;7.70;5.97;;;10.30;99.90;;;;;;4994132;28;20444;-76
2021/10/24 10:05:52;;;;;;;10.47;6.87;;;10.40;99.90;;;;;;4985622;28;20464;-78
2021/10/24 10:08:18;;;;;;;11.37;6.40;;;10.40;99.90;;;;;;4992935;28;20490;-78
2021/10/24 10:10:53;;;;;;;8.13;6.43;;;10.30;99.90;;;;;;4996590;28;20494;-77
2021/10/24 10:13:24;;;;;;;9.40;6.00;;;10.20;99.90;;;;;;4994333;28;20514;-78
2021/10/24 10:15:51;;;;;;;8.40;5.90;;;10.10;99.90;;;;;;4995992;28;20453;-78
2021/10/24 10:18:20;;;;;;;5.73;5.13;;;10.20;99.90;;;;;;4997077;28;20503;-76
2021/10/24 10:20:49;;;;;;;9.20;7.50;;;10.40;99.90;;;;;;4991618;28;20476;-77
2021/10/24 10:23:23;;;;;;;8.50;6.47;;;10.50;99.90;;;;;;4991947;28;20804;-78
2021/10/24 10:25:50;;;;;;;9.50;6.90;;;10.40;99.90;;;;;;4996179;28;20420;-74
2021/10/24 10:28:53;;;;;;;9.43;6.30;;;10.30;99.90;;;;;;4993885;28;20479;-75
2021/10/24 10:31:19;;;;;;;8.93;6.50;;;10.40;99.90;;;;;;4997657;28;20897;-75
2021/10/24 10:34:08;;;;;;;18.03;9.90;;;10.30;99.90;;;;;;4993475;28;20447;-75
2021/10/24 10:36:49;;;;;;;7.10;5.67;;;10.40;99.90;;;;;;4990768;28;20210;-75
2021/10/24 10:39:35;;;;;;;12.73;6.00;;;10.60;99.90;;;;;;4995806;28;20436;-75
2021/10/24 10:42:26;;;;;;;9.30;7.20;;;10.60;99.90;;;;;;4998002;28;20432;-74
2021/10/24 10:45:14;;;;;;;7.47;6.23;;;10.60;99.90;;;;;;4959225;28;20451;-74
2021/10/24 10:48:22;;;;;;;10.93;6.70;;;10.50;99.90;;;;;;4991556;28;21249;-76
2021/10/24 10:50:52;;;;;;;9.60;6.73;;;10.70;99.90;;;;;;4993113;28;20543;-74
2021/10/24 10:53:30;;;;;;;9.93;6.60;;;10.80;99.90;;;;;;5001499;28;20432;-75
2021/10/24 10:55:55;;;;;;;9.03;6.20;;;10.80;99.90;;;;;;4984891;28;21181;-75
2021/10/24 10:58:34;;;;;;;8.40;6.53;;;10.90;99.90;;;;;;4998054;28;20448;-75
2021/10/24 11:01:01;;;;;;;7.40;6.53;;;11.00;99.90;;;;;;5000438;28;20206;-75
2021/10/24 11:03:53;;;;;;;9.00;6.40;;;10.90;99.90;;;;;;4995199;28;20444;-76
2021/10/24 11:06:27;;;;;;;7.70;5.70;;;11.10;99.90;;;;;;4976322;28;20447;-74
2021/10/24 11:08:57;;;;;;;7.40;6.23;;;11.30;99.90;;;;;;5001110;28;20477;-75
2021/10/24 11:11:41;;;;;;;10.30;5.60;;;11.50;99.90;;;;;;4998312;28;20451;-74
2021/10/24 11:14:16;;;;;;;9.30;6.47;;;11.70;99.90;;;;;;4993867;28;20445;-76
2021/10/24 11:16:48;;;;;;;5.70;5.20;;;11.70;99.90;;;;;;4999127;28;20464;-75
2021/10/24 11:19:29;;;;;;;6.87;5.93;;;11.60;99.90;;;;;;4997809;28;20525;-74
2021/10/24 11:22:10;;;;;;;7.60;6.60;;;11.70;99.90;;;;;;4993964;28;20552;-75
2021/10/24 11:24:37;;;;;;;7.80;5.40;;;11.80;99.90;;;;;;4998310;28;20463;-75
2021/10/24 11:27:05;;;;;;;8.53;5.23;;;11.80;99.90;;;;;;4996382;28;20479;-74
2021/10/24 11:29:33;;;;;;;6.83;5.67;;;11.90;99.90;;;;;;4993061;28;20467;-75
2021/10/24 11:32:35;;;;;;;6.10;5.50;;;11.90;99.90;;;;;;4996235;28;20928;-75
2021/10/24 11:35:12;;;;;;;6.80;6.10;;;12.10;99.90;;;;;;4996544;28;20939;-75
2021/10/24 11:37:46;;;;;;;12.13;5.53;;;12.20;99.90;;;;;;4994891;28;20479;-75
2021/10/24 11:40:21;;;;;;;6.47;4.77;;;12.20;99.90;;;;;;4995760;28;20460;-75
2021/10/24 11:43:03;;;;;;;6.87;5.83;;;12.80;99.90;;;;;;4992209;28;20433;-75
2021/10/24 11:45:33;;;;;;;7.80;4.90;;;14.60;99.90;;;;;;4976694;28;20555;-73
2021/10/24 11:48:05;;;;;;;5.93;5.33;;;16.80;99.90;;;;;;4998302;28;20425;-75
2021/10/24 11:50:56;;;;;;;5.67;4.80;;;18.80;99.90;;;;;;4993929;28;20570;-74
2021/10/24 11:53:32;;;;;;;5.93;5.30;;;20.70;99.90;;;;;;4995994;28;20541;-75
2021/10/24 11:56:00;;;;;;;5.70;5.00;;;23.20;96.90;;;;;;5005990;28;20538;-75
2021/10/24 12:01:11;;;;;;;5.87;4.70;;;25.10;80.00;;;;;;5000884;28;20602;-75
2021/10/24 12:03:41;;;;;;;5.07;4.57;;;26.60;73.50;;;;;;5001712;28;20436;-75
2021/10/24 12:06:09;;;;;;;6.97;4.63;;;26.40;67.70;;;;;;5001596;28;20441;-75
2021/10/24 12:09:05;;;;;;;5.37;4.40;;;27.00;64.50;;;;;;4984824;28;20612;-75
2021/10/24 12:11:45;;;;;;;5.10;4.60;;;28.90;58.60;;;;;;4996839;28;20448;-75
2021/10/24 12:14:12;;;;;;;6.17;5.43;;;29.70;54.30;;;;;;4998774;28;20515;-74
2021/10/24 12:16:41;;;;;;;5.40;4.63;;;29.70;52.70;;;;;;4994411;28;21088;-76
2021/10/24 12:19:10;;;;;;;8.60;4.70;;;29.70;52.70;;;;;;4997553;28;20482;-76
2021/10/24 12:21:35;;;;;;;4.60;4.20;;;30.60;51.10;;;;;;4996952;28;20433;-75
2021/10/24 12:24:19;;;;;;;4.43;4.03;;;31.10;48.20;;;;;;4997979;28;20421;-75
2021/10/24 12:26:45;;;;;;;5.33;4.83;;;31.00;49.00;;;;;;4994902;28;20186;-74
2021/10/24 12:29:18;;;;;;;6.20;4.60;;;31.30;48.30;;;;;;4995748;28;20496;-74
2021/10/24 12:32:03;;;;;;;6.00;4.70;;;30.50;47.10;;;;;;5000345;28;20555;-76
2021/10/24 12:34:30;;;;;;;4.87;4.27;;;30.90;46.80;;;;;;4997446;28;20914;-75
2021/10/24 12:36:58;;;;;;;5.37;4.87;;;29.50;47.50;;;;;;4999283;28;20469;-76
2021/10/24 12:39:26;;;;;;;4.57;4.17;;;29.90;46.40;;;;;;5003740;28;20483;-75
2021/10/24 12:41:52;;;;;;;5.03;4.63;;;30.60;46.40;;;;;;4996273;28;20440;-77
2021/10/24 12:44:23;;;;;;;4.87;4.37;;;31.50;44.60;;;;;;4996586;28;20919;-74
2021/10/24 12:46:51;;;;;;;6.03;4.93;;;32.10;44.40;;;;;;4996365;28;20455;-75
2021/10/24 12:49:25;;;;;;;5.13;4.30;;;31.70;43.80;;;;;;4981156;28;20812;-75
2021/10/24 12:52:12;;;;;;;4.20;3.80;;;31.30;42.50;;;;;;4999895;28;20461;-76
2021/10/24 12:54:38;;;;;;;4.43;3.73;;;30.60;43.60;;;;;;5006644;28;20991;-74
2021/10/24 12:57:19;;;;;;;4.70;4.20;;;31.20;43.50;;;;;;4996250;28;20989;-76
2021/10/24 12:59:44;;;;;;;6.63;4.30;;;30.20;43.20;;;;;;4997999;28;20204;-75
2021/10/24 13:02:11;;;;;;;4.80;3.93;;;30.30;44.50;;;;;;4997856;28;20441;-75
2021/10/24 13:04:37;;;;;;;6.10;5.10;;;28.50;43.90;;;;;;4997036;28;20201;-75
2021/10/24 13:07:03;;;;;;;5.90;4.20;;;28.00;45.30;;;;;;4994796;28;21015;-76
2021/10/24 13:09:32;;;;;;;5.13;3.70;;;26.60;46.50;;;;;;4995513;28;20623;-77
2021/10/24 13:11:57;;;;;;;4.83;3.33;;;25.40;47.30;;;;;;4997609;28;20495;-77